Carlet, Spain
Current Conditions -  °F | °C
As of 6:30 PM on Saturday 25 Oct 2014 (Local Time) from LEVC Reporting Station
Clear Clear  
Wind Chill: 77°   Ceiling: Unl
Heat Index: 78°   Visibility: 6mi
Dew Point: 54°   Wind: 8mph
Humidity: 44%   Direction: 120°ESE
Pressure: 30.06"   Gusts: NA
Location:  39.23°N, 0.52°W
Report Text: LEVC 251630Z 12007KT CAVOK 25/12 Q1018 NOSIG
Loading
Personal Weather Stations






























Interactive Weather Map
Tropical Storm Tracking
New forecast layout! Learn more

10-Day Weather Forecast

Advertisements
Track Severe Weather on mobile